createdAt,value
2023-01-19T00:02:39.828Z,0.9
2023-01-19T00:06:43.087Z,0.7
2023-01-19T00:08:47.403Z,0.7
2023-01-19T00:10:49.016Z,0.7
2023-01-19T00:12:50.656Z,0.8
2023-01-19T00:14:54.957Z,0.7
2023-01-19T00:16:56.593Z,0.7
2023-01-19T00:18:58.214Z,0.7
2023-01-19T00:23:04.132Z,0.4
2023-01-19T00:32:18.198Z,0.4
2023-01-19T00:34:19.773Z,0.5
2023-01-19T00:36:24.077Z,0.4
2023-01-19T00:40:27.321Z,0.6
2023-01-19T00:49:26.333Z,0.6
2023-01-19T00:53:29.566Z,0.6
2023-01-19T00:55:33.881Z,0.5
2023-01-19T00:57:35.473Z,0.5
2023-01-19T00:59:37.084Z,0.4
2023-01-19T01:01:45.757Z,0.2
2023-01-19T01:03:43.005Z,0.3
2023-01-19T01:05:44.650Z,0.2
2023-01-19T01:07:48.926Z,0.3
2023-01-19T01:09:50.602Z,0.3
2023-01-19T01:11:52.134Z,0.2
2023-01-19T01:13:56.429Z,0.3
2023-01-19T01:15:58.035Z,0.4
2023-01-19T01:17:59.675Z,0.4
2023-01-19T01:20:03.969Z,0.3
2023-01-19T01:22:05.631Z,0.4
2023-01-19T01:28:13.099Z,0.7
2023-01-19T01:30:14.715Z,0.6
2023-01-19T01:39:28.662Z,0.9
2023-01-19T01:41:32.955Z,1
2023-01-19T01:43:34.581Z,1.2
2023-01-19T01:47:40.480Z,1.1
2023-01-19T01:49:42.119Z,1.1
2023-01-19T01:51:43.716Z,1.1
2023-01-19T01:53:48.012Z,1.1
2023-01-19T01:55:49.664Z,1.1
2023-01-19T01:57:51.260Z,1.1
2023-01-19T02:05:01.060Z,1.1
2023-01-19T02:07:02.647Z,1
2023-01-19T02:09:06.942Z,1
2023-01-19T02:11:08.578Z,0.9
2023-01-19T02:13:10.205Z,0.9
2023-01-19T02:15:14.543Z,0.9
2023-01-19T02:17:16.102Z,0.9
2023-01-19T02:19:17.723Z,1
2023-01-19T02:21:22.040Z,0.9
2023-01-19T02:23:23.657Z,0.9
2023-01-19T02:25:25.297Z,0.8
2023-01-19T02:27:29.641Z,0.8
2023-01-19T02:29:31.341Z,0.8
2023-01-19T02:31:32.880Z,0.7
2023-01-19T02:33:37.164Z,0.5
2023-01-19T02:35:38.880Z,0.6
2023-01-19T02:37:40.422Z,0.3
2023-01-19T02:39:44.817Z,0.2
2023-01-19T02:41:46.381Z,0.3
2023-01-19T02:43:48.033Z,0.2
2023-01-19T02:45:52.411Z,0.2
2023-01-19T02:47:53.982Z,0.3
2023-01-19T02:49:55.582Z,0.2
2023-01-19T02:55:04.261Z,0.1
2023-01-19T02:57:05.890Z,0.2
2023-01-19T02:59:07.494Z,0.2
2023-01-19T03:01:11.953Z,0.3
2023-01-19T03:03:13.426Z,0.3
2023-01-19T03:05:15.000Z,0.3
2023-01-19T03:12:24.737Z,0.4
2023-01-19T03:14:26.353Z,0.4
2023-01-19T03:18:32.221Z,0.4
2023-01-19T03:20:33.840Z,0.4
2023-01-19T03:22:38.139Z,0.4
2023-01-19T03:24:39.761Z,0.6
2023-01-19T03:26:41.381Z,0.5
2023-01-19T03:28:45.640Z,0.5
2023-01-19T03:30:47.383Z,0.6
2023-01-19T03:32:48.876Z,0.6
2023-01-19T03:34:53.170Z,0.7
2023-01-19T03:36:54.760Z,0.6
2023-01-19T03:38:56.382Z,0.7
2023-01-19T03:41:00.688Z,0.8
2023-01-19T03:52:16.209Z,0.9
2023-01-19T03:54:17.845Z,1
2023-01-19T03:56:22.150Z,0.9
2023-01-19T03:58:23.756Z,1
2023-01-19T04:02:29.709Z,1.1
2023-01-19T04:04:31.262Z,1.1
2023-01-19T04:10:38.809Z,1.2
2023-01-19T04:12:40.427Z,1.1
2023-01-19T04:14:44.743Z,1.2
2023-01-19T04:16:46.367Z,1.3
2023-01-19T04:20:52.283Z,1.2
2023-01-19T04:22:53.964Z,1.2
2023-01-19T04:26:59.879Z,1.2
2023-01-19T04:29:01.506Z,1.3
2023-01-19T04:31:03.189Z,1.3
2023-01-19T04:35:09.074Z,1.4
2023-01-19T04:43:18.975Z,1.5
2023-01-19T04:45:23.261Z,1.6
2023-01-19T04:47:24.917Z,1.6
2023-01-19T04:51:30.838Z,1.7
2023-01-19T04:53:32.510Z,1.6
2023-01-19T04:55:34.161Z,1.7
2023-01-19T04:57:38.470Z,1.7
2023-01-19T05:01:41.830Z,1.9
2023-01-19T05:03:46.134Z,1.9
2023-01-19T05:05:47.634Z,1.8
2023-01-19T05:07:49.306Z,1.7
2023-01-19T05:09:53.666Z,1.8
2023-01-19T05:11:55.278Z,1.8
2023-01-19T05:13:56.924Z,1.7
2023-01-19T05:16:01.305Z,1.8
2023-01-19T05:18:02.898Z,1.7
2023-01-19T05:20:04.570Z,1.8
2023-01-19T05:22:08.881Z,1.7
2023-01-19T05:24:10.548Z,1.6
2023-01-19T05:26:12.228Z,1.7
2023-01-19T05:28:16.533Z,1.7
2023-01-19T05:32:19.874Z,1.6
2023-01-19T05:34:24.186Z,1.6
2023-01-19T05:36:25.851Z,1.6
2023-01-19T05:40:31.850Z,1.7
2023-01-19T05:42:33.521Z,1.6
2023-01-19T05:44:35.160Z,1.6
2023-01-19T05:50:42.810Z,1.7
2023-01-19T05:52:47.143Z,1.6
2023-01-19T05:54:48.791Z,1.6
2023-01-19T05:56:50.457Z,1.6
2023-01-19T05:58:54.779Z,1.6
2023-01-19T06:00:56.540Z,1.6
2023-01-19T06:02:58.482Z,1.6
2023-01-19T06:07:04.103Z,1.6
2023-01-19T06:09:05.767Z,1.6
2023-01-19T06:17:17.704Z,1.6
2023-01-19T06:37:19.792Z,1.7
2023-01-19T06:39:24.169Z,1.8
2023-01-19T06:41:25.801Z,1.8
2023-01-19T06:43:27.461Z,1.8
2023-01-19T06:45:31.805Z,1.9
2023-01-19T06:47:33.432Z,1.8
2023-01-19T06:49:35.084Z,1.7
2023-01-19T06:51:39.418Z,1.7
2023-01-19T06:55:42.709Z,1.7
2023-01-19T06:57:47.044Z,1.6
2023-01-19T07:01:50.397Z,1.7
2023-01-19T07:03:54.679Z,1.7
2023-01-19T07:05:56.348Z,1.7
2023-01-19T07:07:57.965Z,1.6
2023-01-19T07:10:02.291Z,1.6
2023-01-19T07:14:05.571Z,1.6
2023-01-19T07:16:09.916Z,1.7
2023-01-19T07:18:11.569Z,1.7
2023-01-19T07:20:13.209Z,1.7
2023-01-19T07:22:17.520Z,1.6
2023-01-19T07:24:19.168Z,1.6
2023-01-19T07:28:25.126Z,1.7
2023-01-19T07:30:26.821Z,1.7
2023-01-19T07:38:35.993Z,1.6
2023-01-19T07:43:44.796Z,1.7
2023-01-19T07:45:46.441Z,1.6
2023-01-19T07:47:48.114Z,1.5
2023-01-19T07:49:52.371Z,1.5
2023-01-19T07:51:54.019Z,1.7
2023-01-19T07:53:55.627Z,1.7
2023-01-19T07:58:01.688Z,1.9
2023-01-19T08:00:03.291Z,1.8
2023-01-19T08:02:07.676Z,1.7
2023-01-19T08:04:09.206Z,1.8
2023-01-19T08:06:10.781Z,1.8
2023-01-19T08:08:15.116Z,1.7
2023-01-19T08:10:16.732Z,1.7
2023-01-19T08:12:18.361Z,1.8
2023-01-19T08:14:22.652Z,1.9
2023-01-19T08:16:24.300Z,1.9
2023-01-19T08:18:25.973Z,2
2023-01-19T08:20:30.232Z,1.9
2023-01-19T08:22:31.871Z,1.8
2023-01-19T08:24:33.483Z,1.8
2023-01-19T08:26:37.810Z,1.9
2023-01-19T08:28:39.461Z,2
2023-01-19T08:30:41.217Z,2.1
2023-01-19T08:32:45.394Z,2
2023-01-19T08:34:47.013Z,2.1
2023-01-19T08:36:48.633Z,2.1
2023-01-19T08:40:54.595Z,2.2
2023-01-19T08:42:56.226Z,2.2
2023-01-19T08:57:15.740Z,2.3
2023-01-19T08:59:17.365Z,2.2
2023-01-19T09:01:19.208Z,2.3
2023-01-19T09:05:25.771Z,2.2
2023-01-19T09:07:27.403Z,2.3
2023-01-19T09:09:31.772Z,2.2
2023-01-19T09:13:35.075Z,2.1
2023-01-19T09:15:39.535Z,2.1
2023-01-19T09:17:41.036Z,2
2023-01-19T09:19:42.741Z,2
2023-01-19T09:21:47.041Z,2
2023-01-19T09:23:48.800Z,1.9
2023-01-19T09:25:50.338Z,2.1
2023-01-19T09:27:54.661Z,2.1
2023-01-19T09:38:05.565Z,2.6
2023-01-19T09:40:09.918Z,2.5
2023-01-19T09:42:11.553Z,2.8
2023-01-19T09:46:17.593Z,2.7
2023-01-19T09:48:19.219Z,3.2
2023-01-19T09:52:25.174Z,3.3
2023-01-19T09:56:28.499Z,2.8
2023-01-19T10:00:34.537Z,3.3
2023-01-19T10:02:36.236Z,3
2023-01-19T10:06:42.166Z,3.1
2023-01-19T10:08:43.831Z,3.1
2023-01-19T10:10:48.172Z,3.2
2023-01-19T10:12:49.838Z,4.9
2023-01-19T10:14:51.562Z,5.7
2023-01-19T10:19:58.187Z,6.1
2023-01-19T10:21:59.865Z,4.5
2023-01-19T10:24:01.506Z,4.8
2023-01-19T10:26:05.891Z,4.6
2023-01-19T10:28:07.539Z,4.6
2023-01-19T10:30:09.325Z,4.4
2023-01-19T10:32:13.724Z,4.1
2023-01-19T10:42:24.862Z,6.7
2023-01-19T10:44:29.204Z,6.3
2023-01-19T10:46:30.931Z,5.3
2023-01-19T10:48:32.633Z,5.8
2023-01-19T10:50:37.014Z,6.1
2023-01-19T10:54:40.437Z,5.4
2023-01-19T10:56:44.817Z,6.3
2023-01-19T10:58:46.541Z,6.9
2023-01-19T11:00:48.296Z,6.4
2023-01-19T11:02:52.821Z,6.4
2023-01-19T11:06:56.117Z,6.6
2023-01-19T11:13:04.472Z,6.6
2023-01-19T11:15:08.454Z,6
2023-01-19T11:21:16.395Z,6.3
2023-01-19T11:23:18.132Z,6.2
2023-01-19T11:32:27.809Z,7.1
2023-01-19T11:34:29.588Z,7.6
2023-01-19T11:40:37.591Z,9.5
2023-01-19T11:42:42.022Z,10.6
2023-01-19T11:44:43.826Z,9.7
2023-01-19T11:46:45.577Z,9.9
2023-01-19T11:48:50.061Z,9.4
2023-01-19T11:50:51.859Z,8.9
2023-01-19T11:52:53.609Z,8.9
2023-01-19T11:54:58.089Z,9.2
2023-01-19T11:59:01.652Z,9.5
2023-01-19T12:01:06.139Z,9.1
2023-01-19T12:03:07.974Z,8.9
2023-01-19T12:05:09.684Z,8.3
2023-01-19T12:07:14.120Z,8.1
2023-01-19T12:11:17.731Z,8.8
2023-01-19T12:13:22.202Z,9.4
2023-01-19T12:17:25.765Z,7.6
2023-01-19T12:19:30.247Z,7.6
2023-01-19T12:21:32.052Z,7.8
2023-01-19T12:23:33.807Z,7.1
2023-01-19T12:25:38.279Z,7.6
2023-01-19T12:29:42.154Z,8.2
2023-01-19T12:31:46.443Z,8.7
2023-01-19T12:33:48.142Z,8.4
2023-01-19T12:35:49.910Z,8.3
2023-01-19T12:39:56.177Z,7.3
2023-01-19T12:41:57.949Z,7.1
2023-01-19T12:44:02.607Z,6.9
2023-01-19T12:59:07.671Z,7.2
2023-01-19T13:01:09.641Z,6.3
2023-01-19T13:03:13.911Z,6.1
2023-01-19T13:05:15.710Z,5.8
2023-01-19T13:07:17.481Z,5.7
2023-01-19T13:09:21.948Z,5.7
2023-01-19T13:11:26.021Z,5.6
2023-01-19T13:15:30.009Z,6.1
2023-01-19T13:17:31.750Z,5.9
2023-01-19T13:19:33.521Z,5.7
2023-01-19T13:21:37.964Z,5.5
2023-01-19T13:23:39.741Z,5.4
2023-01-19T13:36:59.033Z,7.9
2023-01-19T13:39:00.807Z,8.2
2023-01-19T13:43:07.031Z,6.2
2023-01-19T13:45:08.809Z,5.7
2023-01-19T13:47:10.651Z,5.8
2023-01-19T13:49:15.021Z,6.9
2023-01-19T13:53:18.655Z,6
2023-01-19T13:55:23.029Z,5.9
2023-01-19T13:57:24.849Z,5.6
2023-01-19T13:59:26.591Z,5.6
2023-01-19T14:06:37.293Z,6
2023-01-19T14:08:39.045Z,5.7
2023-01-19T14:16:51.503Z,6.8
2023-01-19T14:22:59.487Z,6.6
2023-01-19T14:25:01.217Z,6.1
2023-01-19T14:36:02.594Z,5.8
2023-01-19T14:38:04.336Z,5.9
2023-01-19T14:40:06.127Z,5.7
2023-01-19T14:42:10.558Z,5.5
2023-01-19T14:44:12.346Z,5.4
2023-01-19T14:46:14.114Z,5.4
2023-01-19T14:48:18.527Z,5.5
2023-01-19T14:50:20.334Z,5.5
2023-01-19T14:52:22.126Z,5.5
2023-01-19T14:56:28.359Z,5.5
2023-01-19T15:04:38.126Z,5.4
2023-01-19T15:17:59.050Z,4.9
2023-01-19T15:20:00.890Z,4.7
2023-01-19T15:25:04.308Z,4.6
2023-01-19T15:34:12.985Z,4.2
2023-01-19T15:36:16.955Z,4
2023-01-19T15:38:16.516Z,3.9
2023-01-19T15:42:22.623Z,3.8
2023-01-19T15:44:24.367Z,3.7
2023-01-19T15:46:28.743Z,3.5
2023-01-19T15:48:30.469Z,3.5
2023-01-19T15:52:36.617Z,3.4
2023-01-19T15:54:38.321Z,3.4
2023-01-19T15:56:40.037Z,3.4
2023-01-19T16:02:47.924Z,2.8
2023-01-19T16:04:52.292Z,2.7
2023-01-19T16:13:01.710Z,2.6
2023-01-19T16:15:03.415Z,2.6
2023-01-19T16:17:07.749Z,2.5
2023-01-19T16:21:11.133Z,2.5
2023-01-19T16:23:15.970Z,2.3
2023-01-19T16:35:30.879Z,2.2
2023-01-19T16:37:32.544Z,2.2
2023-01-19T16:41:38.578Z,2.2
2023-01-19T16:43:40.251Z,2.1
2023-01-19T16:45:41.971Z,1.8
2023-01-19T16:47:46.241Z,1.6
2023-01-19T16:49:47.926Z,1.4
2023-01-19T16:51:49.637Z,1.6
2023-01-19T16:53:53.922Z,1.4
2023-01-19T16:57:57.214Z,1.4
2023-01-19T17:00:01.666Z,1.4
2023-01-19T17:06:09.153Z,1.3
2023-01-19T17:08:10.804Z,1.3
2023-01-19T17:10:12.755Z,1.4
2023-01-19T17:15:25.696Z,1.4
2023-01-19T17:17:27.315Z,1.2
2023-01-19T17:19:28.934Z,1.1
2023-01-19T17:21:33.240Z,0.9
2023-01-19T17:23:34.855Z,0.8
2023-01-19T17:25:36.487Z,0.7
2023-01-19T17:33:48.253Z,0.3
2023-01-19T17:35:49.931Z,0.2
2023-01-19T17:37:51.469Z,0.3
2023-01-19T17:39:55.749Z,0.1
2023-01-19T17:41:57.351Z,0
2023-01-19T17:43:58.956Z,0.1
2023-01-19T17:46:03.266Z,0.1
2023-01-19T17:48:04.796Z,0.2
2023-01-19T17:50:06.375Z,0.2
2023-01-19T17:52:10.640Z,0.2
2023-01-19T17:58:18.039Z,0.4
2023-01-19T18:00:19.651Z,0.4
2023-01-19T18:02:21.261Z,0.5
2023-01-19T18:04:25.447Z,0.6
2023-01-19T18:06:27.032Z,0.8
2023-01-19T18:08:28.576Z,0.7
2023-01-19T18:10:32.837Z,0.7
2023-01-19T18:12:34.407Z,0.7
2023-01-19T18:14:35.981Z,0.7
2023-01-19T18:16:40.221Z,0.8
2023-01-19T18:18:41.801Z,0.8
2023-01-19T18:20:43.383Z,0.7
2023-01-19T18:22:47.622Z,0.7
2023-01-19T18:24:49.231Z,0.6
2023-01-19T18:26:50.799Z,0.6
2023-01-19T18:30:56.701Z,0.6
2023-01-19T18:32:58.187Z,0.6
2023-01-19T18:35:02.535Z,0.5
2023-01-19T18:37:04.035Z,0.4
2023-01-19T18:39:05.625Z,0.3
2023-01-19T18:41:09.871Z,0.3
2023-01-19T18:43:11.462Z,0.4
2023-01-19T18:45:13.016Z,0.3
2023-01-19T18:47:17.282Z,0.4
2023-01-19T18:49:18.872Z,0.5
2023-01-19T18:51:20.423Z,0.5
2023-01-19T18:53:24.695Z,0.5
2023-01-19T18:55:26.277Z,0.5
2023-01-19T18:57:27.857Z,0.6
2023-01-19T18:59:32.103Z,0.5
2023-01-19T19:01:33.840Z,0.5
2023-01-19T19:05:39.512Z,0.4
2023-01-19T19:07:41.077Z,0.4
2023-01-19T19:15:50.103Z,0.5
2023-01-19T19:19:55.938Z,0.5
2023-01-19T19:24:01.789Z,0.5
2023-01-19T19:30:09.216Z,0.3
2023-01-19T19:32:10.754Z,0.2
2023-01-19T19:34:12.404Z,0.2
2023-01-19T19:36:16.737Z,0.2
2023-01-19T19:38:18.189Z,0.2
2023-01-19T19:40:19.784Z,0.3
2023-01-19T19:45:32.477Z,0.2
2023-01-19T19:47:34.051Z,0.2
2023-01-19T19:49:35.633Z,0.3
2023-01-19T20:00:36.091Z,0.2
2023-01-19T20:02:37.627Z,0.2
2023-01-19T20:10:49.335Z,0.3
2023-01-19T20:12:50.911Z,0.3
2023-01-19T20:14:52.459Z,0.3
2023-01-19T20:16:56.728Z,0.3
2023-01-19T20:18:58.312Z,0.3
2023-01-19T20:20:59.888Z,0.4
2023-01-19T20:23:04.156Z,0.4
2023-01-19T20:27:07.319Z,0.4
2023-01-19T20:35:19.031Z,0.4
2023-01-19T20:37:20.650Z,0.5
2023-01-19T20:39:22.224Z,0.5
2023-01-19T20:41:26.516Z,0.5
2023-01-19T20:43:28.100Z,0.5
2023-01-19T20:45:29.767Z,0.5
2023-01-19T20:52:41.983Z,0.5
2023-01-19T20:56:47.900Z,0.5
2023-01-19T20:58:49.476Z,0.5
2023-01-19T21:00:51.135Z,0.5
2023-01-19T21:06:58.553Z,0.6
2023-01-19T21:09:02.861Z,0.6
2023-01-19T21:25:22.753Z,0.5
2023-01-19T21:27:27.048Z,0.4
2023-01-19T21:29:28.625Z,0.5
2023-01-19T21:31:30.353Z,0.4
2023-01-19T21:33:34.562Z,0.5
2023-01-19T21:35:36.185Z,0.4
2023-01-19T21:37:37.795Z,0.4
2023-01-19T21:39:42.103Z,0.4
2023-01-19T21:41:43.916Z,0.4
2023-01-19T21:43:45.328Z,0.3
2023-01-19T21:45:49.731Z,0.3
2023-01-19T21:47:51.259Z,0.2
2023-01-19T21:49:52.889Z,0.2
2023-01-19T21:51:57.149Z,0.2
2023-01-19T22:04:12.213Z,0.1
2023-01-19T22:17:14.395Z,0.1
2023-01-19T22:23:21.888Z,0
2023-01-19T22:25:23.474Z,0
2023-01-19T22:27:25.057Z,0
2023-01-19T22:29:29.342Z,0
2023-01-19T22:31:31.115Z,-0.1
2023-01-19T22:33:32.541Z,-0.1
2023-01-19T22:35:36.807Z,0
2023-01-19T22:37:38.442Z,0.1
2023-01-19T22:39:39.984Z,0.1
2023-01-19T22:43:45.880Z,0.1
2023-01-19T22:45:47.463Z,0.2
2023-01-19T22:47:51.722Z,0.2
2023-01-19T23:05:15.018Z,0.3
2023-01-19T23:07:16.265Z,0.3
2023-01-19T23:09:20.553Z,0.3
2023-01-19T23:11:22.148Z,0.3
2023-01-19T23:13:23.739Z,0.3
2023-01-19T23:15:28.049Z,0.3
2023-01-19T23:17:29.609Z,0.3
2023-01-19T23:21:35.498Z,0.4
2023-01-19T23:23:37.091Z,0.3
2023-01-19T23:25:38.697Z,0.3
2023-01-19T23:30:51.647Z,0.3
2023-01-19T23:32:53.201Z,0.3
2023-01-19T23:34:54.838Z,0.3
2023-01-19T23:36:59.094Z,0.3
2023-01-19T23:39:00.688Z,0.3
2023-01-19T23:41:02.304Z,0.3
2023-01-19T23:46:15.292Z,0.3
2023-01-19T23:48:16.874Z,0.3
2023-01-19T23:50:18.490Z,0.3
2023-01-19T23:57:23.757Z,0.3
2023-01-19T23:59:25.329Z,0.4
